Riverside, Iowa
Current Conditions -  °F | °C
As of 2:52 AM on Friday 28 Nov 2014 (Local Time) from KIOW Reporting Station
Broken Clouds Broken Clouds  
Wind Chill:   Ceiling: 10000
Heat Index: 14°   Visibility: 10mi
Dew Point:   Wind: 10mph
Humidity: 77%   Direction: 120°ESE
Pressure: 30.29"   Gusts: NA
Location:  41.48°N, 91.58°W
Report Text: KIOW 280852Z AUTO 12009KT 10SM BKN100 BKN120 M10/M13 A3029 RMK AO2 SLP269 60000 T11001133 58030
Loading
Personal Weather Stations






























Interactive Weather Map New forecast layout! Learn more

10-Day Weather Forecast

Advertisements
Track Severe Weather on mobile